createdAt,value
2018-04-30T00:01:47.236Z,12.98
2018-04-30T00:04:14.694Z,12.92
2018-04-30T00:06:42.183Z,12.82
2018-04-30T00:09:09.639Z,12.74
2018-04-30T00:11:37.122Z,12.61
2018-04-30T00:14:04.594Z,12.46
2018-04-30T00:16:32.094Z,12.52
2018-04-30T00:18:59.559Z,12.60
2018-04-30T00:21:27.013Z,12.63
2018-04-30T00:23:54.498Z,12.70
2018-04-30T00:26:21.951Z,12.58
2018-04-30T00:28:49.433Z,12.57
2018-04-30T00:31:16.891Z,12.77
2018-04-30T00:33:45.198Z,12.84
2018-04-30T00:36:12.663Z,12.82
2018-04-30T00:38:40.147Z,12.72
2018-04-30T00:41:07.606Z,12.50
2018-04-30T00:43:35.087Z,12.31
2018-04-30T00:46:02.562Z,12.17
2018-04-30T00:48:30.042Z,11.97
2018-04-30T00:50:57.550Z,11.73
2018-04-30T00:53:25.030Z,11.58
2018-04-30T00:55:52.493Z,11.48
2018-04-30T00:58:19.970Z,11.40
2018-04-30T01:00:47.426Z,11.24
2018-04-30T01:03:14.910Z,10.99
2018-04-30T01:05:42.365Z,10.90
2018-04-30T01:08:09.855Z,10.84
2018-04-30T01:10:37.315Z,10.83
2018-04-30T01:13:04.798Z,10.84
2018-04-30T01:15:32.255Z,10.92
2018-04-30T01:17:59.730Z,10.93
2018-04-30T01:20:27.182Z,10.89
2018-04-30T01:22:54.661Z,10.90
2018-04-30T01:25:22.124Z,10.90
2018-04-30T01:27:49.606Z,10.92
2018-04-30T01:30:17.061Z,10.89
2018-04-30T01:32:44.544Z,10.89
2018-04-30T01:35:12.043Z,10.85
2018-04-30T01:37:39.522Z,10.82
2018-04-30T01:40:06.987Z,10.82
2018-04-30T01:42:34.465Z,10.77
2018-04-30T01:45:01.942Z,10.70
2018-04-30T01:47:29.434Z,10.70
2018-04-30T01:49:56.890Z,10.71
2018-04-30T01:52:24.345Z,10.67
2018-04-30T01:54:51.830Z,10.63
2018-04-30T01:57:19.285Z,10.64
2018-04-30T01:59:46.761Z,10.68
2018-04-30T02:02:16.206Z,10.69
2018-04-30T02:04:44.601Z,10.72
2018-04-30T02:07:12.094Z,10.56
2018-04-30T02:09:39.578Z,10.47
2018-04-30T02:12:07.038Z,10.47
2018-04-30T02:14:34.531Z,10.57
2018-04-30T02:17:01.986Z,10.57
2018-04-30T02:19:29.461Z,10.64
2018-04-30T02:21:56.919Z,10.68
2018-04-30T02:24:24.398Z,10.65
2018-04-30T02:26:51.858Z,10.71
2018-04-30T02:29:19.347Z,10.63
2018-04-30T02:31:46.813Z,10.65
2018-04-30T02:34:14.491Z,10.63
2018-04-30T02:36:41.954Z,10.55
2018-04-30T02:39:09.438Z,10.49
2018-04-30T02:41:36.895Z,10.48
2018-04-30T02:44:04.373Z,10.42
2018-04-30T02:46:31.832Z,10.41
2018-04-30T02:48:59.323Z,10.43
2018-04-30T02:51:26.786Z,10.42
2018-04-30T02:53:54.291Z,10.38
2018-04-30T02:56:21.751Z,10.37
2018-04-30T02:58:49.231Z,10.34
2018-04-30T03:01:16.686Z,10.35
2018-04-30T03:03:44.200Z,10.35
2018-04-30T03:06:11.682Z,10.27
2018-04-30T03:08:39.158Z,10.27
2018-04-30T03:11:06.615Z,10.24
2018-04-30T03:13:34.097Z,10.25
2018-04-30T03:16:01.571Z,10.18
2018-04-30T03:18:29.050Z,10.21
2018-04-30T03:20:56.509Z,10.10
2018-04-30T03:23:23.989Z,10.10
2018-04-30T03:25:51.478Z,10.20
2018-04-30T03:28:18.953Z,10.24
2018-04-30T03:30:46.442Z,10.23
2018-04-30T03:33:13.907Z,10.18
2018-04-30T03:35:41.386Z,10.22
2018-04-30T03:38:08.842Z,10.17
2018-04-30T03:40:36.336Z,10.19
2018-04-30T03:43:03.794Z,10.21
2018-04-30T03:45:31.291Z,10.18
2018-04-30T03:47:58.762Z,10.20
2018-04-30T03:50:26.237Z,10.21
2018-04-30T03:52:53.694Z,10.23
2018-04-30T03:55:21.174Z,10.19
2018-04-30T03:57:48.646Z,10.18
2018-04-30T04:00:27.999Z,10.12
2018-04-30T04:03:07.242Z,10.13
2018-04-30T04:05:46.557Z,10.15
2018-04-30T04:08:14.023Z,10.13
2018-04-30T04:10:41.502Z,10.18
2018-04-30T04:13:08.962Z,10.17
2018-04-30T04:15:36.562Z,10.19
2018-04-30T04:18:04.026Z,10.16
2018-04-30T04:20:31.505Z,10.18
2018-04-30T04:22:59.036Z,10.21
2018-04-30T04:25:26.523Z,10.20
2018-04-30T04:27:53.982Z,10.16
2018-04-30T04:30:21.458Z,10.18
2018-04-30T04:32:48.922Z,10.20
2018-04-30T04:35:16.398Z,10.22
2018-04-30T04:37:43.861Z,10.17
2018-04-30T04:40:11.355Z,10.20
2018-04-30T04:42:38.821Z,10.21
2018-04-30T04:45:06.306Z,10.21
2018-04-30T04:47:33.832Z,10.26
2018-04-30T04:50:01.261Z,10.27
2018-04-30T04:52:28.734Z,10.25
2018-04-30T04:54:56.214Z,10.28
2018-04-30T04:57:23.675Z,10.32
2018-04-30T04:59:51.162Z,10.41
2018-04-30T05:02:18.692Z,10.45
2018-04-30T05:04:46.130Z,10.53
2018-04-30T05:07:13.607Z,10.62
2018-04-30T05:09:41.066Z,10.65
2018-04-30T05:12:08.547Z,10.71
2018-04-30T05:14:36.002Z,10.74
2018-04-30T05:17:03.483Z,10.78
2018-04-30T05:19:30.937Z,10.78
2018-04-30T05:21:58.417Z,10.81
2018-04-30T05:24:25.898Z,10.82
2018-04-30T05:26:53.407Z,10.96
2018-04-30T05:29:20.866Z,11.05
2018-04-30T05:31:48.341Z,11.08
2018-04-30T05:34:15.857Z,11.05
2018-04-30T05:36:43.314Z,11.02
2018-04-30T05:39:10.769Z,10.97
2018-04-30T05:41:38.250Z,11.07
2018-04-30T05:44:05.714Z,11.36
2018-04-30T05:46:33.278Z,11.64
2018-04-30T05:49:00.734Z,11.93
2018-04-30T05:51:28.220Z,11.93
2018-04-30T05:53:55.679Z,11.90
2018-04-30T05:56:23.161Z,11.91
2018-04-30T05:58:50.648Z,11.82
2018-04-30T06:01:18.126Z,11.58
2018-04-30T06:03:45.585Z,11.44
2018-04-30T06:06:13.065Z,11.43
2018-04-30T06:08:40.538Z,11.42
2018-04-30T06:11:08.019Z,11.48
2018-04-30T06:13:35.483Z,11.48
2018-04-30T06:16:02.962Z,11.55
2018-04-30T06:18:30.423Z,11.58
2018-04-30T06:20:57.989Z,11.67
2018-04-30T06:23:25.449Z,11.72
2018-04-30T06:25:52.934Z,11.73
2018-04-30T06:28:20.398Z,11.78
2018-04-30T06:30:47.882Z,11.85
2018-04-30T06:33:15.337Z,11.86
2018-04-30T06:35:42.826Z,11.81
2018-04-30T06:38:10.292Z,11.84
2018-04-30T06:40:37.796Z,11.88
2018-04-30T06:43:05.295Z,12.02
2018-04-30T06:45:32.789Z,12.17
2018-04-30T06:48:00.284Z,12.23
2018-04-30T06:50:27.747Z,12.31
2018-04-30T06:52:55.234Z,12.36
2018-04-30T06:55:22.694Z,12.42
2018-04-30T06:57:50.181Z,12.51
2018-04-30T07:00:17.724Z,12.60
2018-04-30T07:02:45.157Z,12.66
2018-04-30T07:05:12.613Z,12.72
2018-04-30T07:07:40.102Z,12.83
2018-04-30T07:10:07.629Z,12.85
2018-04-30T07:12:35.145Z,12.90
2018-04-30T07:15:02.604Z,12.92
2018-04-30T07:17:30.094Z,12.94
2018-04-30T07:19:57.558Z,12.99
2018-04-30T07:22:25.470Z,13.03
2018-04-30T07:24:52.961Z,13.11
2018-04-30T07:27:20.443Z,13.20
2018-04-30T07:29:47.979Z,13.37
2018-04-30T07:32:15.463Z,13.47
2018-04-30T07:34:42.947Z,13.57
2018-04-30T07:37:10.457Z,13.65
2018-04-30T07:39:37.916Z,13.78
2018-04-30T07:42:05.405Z,13.91
2018-04-30T07:44:32.877Z,14.03
2018-04-30T07:47:00.379Z,14.15
2018-04-30T07:49:27.846Z,14.27
2018-04-30T07:51:55.358Z,14.51
2018-04-30T07:54:22.814Z,14.53
2018-04-30T07:56:50.323Z,14.54
2018-04-30T07:59:17.777Z,14.66
2018-04-30T08:01:45.275Z,14.81
2018-04-30T08:04:12.750Z,14.81
2018-04-30T08:06:40.255Z,14.94
2018-04-30T08:09:07.775Z,14.75
2018-04-30T08:11:35.277Z,14.82
2018-04-30T08:14:02.822Z,15.16
2018-04-30T08:16:30.410Z,15.30
2018-04-30T08:18:57.911Z,15.25
2018-04-30T08:21:25.445Z,15.43
2018-04-30T08:23:52.906Z,15.39
2018-04-30T08:26:20.363Z,15.61
2018-04-30T08:28:47.866Z,15.93
2018-04-30T08:31:15.423Z,16.07
2018-04-30T08:33:42.937Z,16.15
2018-04-30T08:36:10.431Z,15.99
2018-04-30T08:38:37.947Z,16.09
2018-04-30T08:41:05.461Z,16.28
2018-04-30T08:43:32.985Z,16.64
2018-04-30T08:46:00.460Z,16.83
2018-04-30T08:48:27.950Z,16.83
2018-04-30T08:50:55.679Z,17.05
2018-04-30T08:53:23.172Z,17.38
2018-04-30T08:55:50.634Z,17.46
2018-04-30T08:58:18.126Z,17.66
2018-04-30T09:00:45.602Z,17.73
2018-04-30T09:03:13.086Z,17.86
2018-04-30T09:05:40.543Z,18.09
2018-04-30T09:08:08.042Z,18.22
2018-04-30T09:10:35.630Z,18.37
2018-04-30T09:13:03.118Z,17.96
2018-04-30T09:15:30.584Z,17.89
2018-04-30T09:17:58.147Z,17.60
2018-04-30T09:20:25.622Z,17.43
2018-04-30T09:22:53.113Z,17.64
2018-04-30T09:25:20.582Z,17.82
2018-04-30T09:27:49.091Z,18.02
2018-04-30T09:30:16.566Z,18.36
2018-04-30T09:32:44.084Z,18.66
2018-04-30T09:35:11.623Z,19.26
2018-04-30T09:37:39.159Z,19.67
2018-04-30T09:40:06.623Z,19.97
2018-04-30T09:42:34.094Z,20.62
2018-04-30T09:45:01.606Z,20.24
2018-04-30T09:47:29.063Z,20.80
2018-04-30T09:49:56.550Z,21.16
2018-04-30T09:52:24.037Z,20.62
2018-04-30T09:54:52.057Z,20.45
2018-04-30T09:57:22.839Z,20.17
2018-04-30T09:59:50.470Z,19.81
2018-04-30T10:02:19.124Z,19.22
2018-04-30T10:04:46.641Z,19.05
2018-04-30T10:07:14.137Z,19.74
2018-04-30T10:09:45.077Z,20.86
2018-04-30T10:12:12.645Z,20.44
2018-04-30T10:14:40.159Z,20.88
2018-04-30T10:17:07.635Z,21.65
2018-04-30T10:19:35.155Z,22.85
2018-04-30T10:22:02.614Z,23.42
2018-04-30T10:24:30.130Z,23.28
2018-04-30T10:26:57.602Z,23.34
2018-04-30T10:29:25.212Z,24.80
2018-04-30T10:31:52.888Z,25.85
2018-04-30T10:34:20.374Z,26.70
2018-04-30T10:36:47.842Z,26.26
2018-04-30T10:39:15.330Z,26.28
2018-04-30T10:41:42.881Z,26.73
2018-04-30T10:44:10.402Z,26.22
2018-04-30T10:46:37.931Z,26.65
2018-04-30T10:49:05.470Z,26.63
2018-04-30T10:51:32.999Z,27.65
2018-04-30T10:54:00.515Z,26.88
2018-04-30T10:56:28.008Z,24.84
2018-04-30T10:58:55.527Z,23.64
2018-04-30T11:01:23.007Z,22.94
2018-04-30T11:03:50.509Z,22.44
2018-04-30T11:06:17.995Z,21.07
2018-04-30T11:08:45.496Z,21.37
2018-04-30T11:11:12.981Z,22.91
2018-04-30T11:13:40.506Z,24.10
2018-04-30T11:16:07.994Z,24.40
2018-04-30T11:18:35.458Z,25.46
2018-04-30T11:21:02.939Z,25.00
2018-04-30T11:23:30.418Z,26.41
2018-04-30T11:25:57.904Z,27.08
2018-04-30T11:28:25.380Z,26.72
2018-04-30T11:30:52.890Z,26.35
2018-04-30T11:33:20.362Z,25.17
2018-04-30T11:35:47.862Z,25.30
2018-04-30T11:38:15.362Z,23.85
2018-04-30T11:40:42.911Z,24.10
2018-04-30T11:43:10.506Z,22.31
2018-04-30T11:45:39.292Z,21.72
2018-04-30T11:48:07.187Z,20.87
2018-04-30T11:50:34.811Z,21.76
2018-04-30T11:53:02.636Z,23.41
2018-04-30T11:55:30.175Z,21.64
2018-04-30T11:57:57.696Z,23.97
2018-04-30T12:00:25.197Z,24.58
2018-04-30T12:02:52.683Z,25.18
2018-04-30T12:05:20.242Z,27.87
2018-04-30T12:07:47.767Z,25.41
2018-04-30T12:10:15.302Z,25.18
2018-04-30T12:12:42.803Z,24.40
2018-04-30T12:15:10.349Z,23.79
2018-04-30T12:17:37.957Z,23.80
2018-04-30T12:20:05.458Z,25.48
2018-04-30T12:22:32.975Z,27.03
2018-04-30T12:25:00.529Z,28.31
2018-04-30T12:27:28.060Z,28.96
2018-04-30T12:29:55.602Z,26.69
2018-04-30T12:32:23.133Z,25.76
2018-04-30T12:34:50.643Z,24.53
2018-04-30T12:37:18.146Z,27.57
2018-04-30T12:39:45.659Z,26.65
2018-04-30T12:42:13.390Z,27.66
2018-04-30T12:44:40.877Z,29.46
2018-04-30T12:47:08.447Z,30.25
2018-04-30T12:49:36.160Z,29.99
2018-04-30T12:52:03.627Z,32.41
2018-04-30T12:54:31.102Z,33.38
2018-04-30T12:56:58.615Z,30.80
2018-04-30T12:59:26.089Z,30.54
2018-04-30T13:01:53.594Z,28.40
2018-04-30T13:04:21.119Z,29.72
2018-04-30T13:06:48.637Z,30.44
2018-04-30T13:09:16.112Z,31.26
2018-04-30T13:11:43.660Z,31.75
2018-04-30T13:14:11.150Z,31.75
2018-04-30T13:16:38.670Z,31.46
2018-04-30T13:19:06.167Z,31.25
2018-04-30T13:21:33.688Z,31.34
2018-04-30T13:24:01.158Z,30.94
2018-04-30T13:26:28.662Z,28.87
2018-04-30T13:28:56.144Z,30.76
2018-04-30T13:31:23.626Z,30.90
2018-04-30T13:33:51.102Z,32.98
2018-04-30T13:36:18.611Z,31.42
2018-04-30T13:38:46.097Z,29.61
2018-04-30T13:41:14.002Z,29.19
2018-04-30T13:43:41.554Z,32.86
2018-04-30T13:46:08.997Z,27.63
2018-04-30T13:48:36.465Z,26.00
2018-04-30T13:51:03.986Z,27.46
2018-04-30T13:53:31.449Z,26.45
2018-04-30T13:55:58.950Z,24.95
2018-04-30T13:58:26.430Z,23.66
2018-04-30T14:00:53.918Z,23.85
2018-04-30T14:03:21.403Z,25.37
2018-04-30T14:05:48.895Z,27.95
2018-04-30T14:08:16.360Z,29.66
2018-04-30T14:10:43.868Z,28.97
2018-04-30T14:13:11.346Z,30.21
2018-04-30T14:15:38.827Z,28.41
2018-04-30T14:18:06.330Z,25.66
2018-04-30T14:20:33.786Z,23.86
2018-04-30T14:23:01.278Z,23.63
2018-04-30T14:25:28.749Z,26.69
2018-04-30T14:27:56.246Z,29.59
2018-04-30T14:30:23.710Z,26.83
2018-04-30T14:32:51.202Z,23.65
2018-04-30T14:35:18.722Z,25.58
2018-04-30T14:37:46.226Z,24.90
2018-04-30T14:40:13.685Z,24.75
2018-04-30T14:42:41.195Z,25.43
2018-04-30T14:45:08.661Z,24.64
2018-04-30T14:47:36.149Z,23.28
2018-04-30T14:50:03.614Z,23.14
2018-04-30T14:52:31.107Z,24.62
2018-04-30T14:54:58.575Z,24.39
2018-04-30T14:57:26.074Z,23.28
2018-04-30T14:59:53.535Z,23.56
2018-04-30T15:02:21.013Z,24.47
2018-04-30T15:04:48.485Z,26.04
2018-04-30T15:07:15.962Z,26.44
2018-04-30T15:09:43.434Z,27.93
2018-04-30T15:12:10.960Z,29.26
2018-04-30T15:14:38.486Z,28.26
2018-04-30T15:17:05.985Z,25.46
2018-04-30T15:19:33.535Z,23.86
2018-04-30T15:22:01.003Z,23.54
2018-04-30T15:24:28.461Z,23.94
2018-04-30T15:26:55.939Z,24.82
2018-04-30T15:29:23.429Z,23.75
2018-04-30T15:31:50.967Z,26.48
2018-04-30T15:34:18.437Z,26.10
2018-04-30T15:36:45.942Z,25.47
2018-04-30T15:39:13.445Z,26.98
2018-04-30T15:41:40.992Z,26.73
2018-04-30T15:44:08.461Z,27.55
2018-04-30T15:46:35.959Z,27.82
2018-04-30T15:49:03.504Z,26.24
2018-04-30T15:51:30.993Z,27.23
2018-04-30T15:53:58.560Z,28.59
2018-04-30T15:56:26.041Z,29.33
2018-04-30T15:58:53.602Z,29.59
2018-04-30T16:01:21.159Z,28.35
2018-04-30T16:03:48.606Z,28.13
2018-04-30T16:06:16.067Z,27.08
2018-04-30T16:08:43.679Z,27.18
2018-04-30T16:11:11.174Z,23.84
2018-04-30T16:13:38.717Z,21.36
2018-04-30T16:16:06.236Z,20.66
2018-04-30T16:18:33.816Z,19.91
2018-04-30T16:21:01.283Z,19.23
2018-04-30T16:23:28.795Z,21.65
2018-04-30T16:25:56.274Z,24.72
2018-04-30T16:28:23.775Z,27.56
2018-04-30T16:30:51.366Z,29.35
2018-04-30T16:33:18.900Z,28.29
2018-04-30T16:35:46.354Z,26.79
2018-04-30T16:38:13.926Z,24.81
2018-04-30T16:40:41.390Z,25.45
2018-04-30T16:43:08.890Z,24.88
2018-04-30T16:45:36.356Z,25.17
2018-04-30T16:48:03.838Z,26.15
2018-04-30T16:50:31.315Z,25.89
2018-04-30T16:52:58.850Z,25.36
2018-04-30T16:55:26.302Z,23.93
2018-04-30T16:57:53.809Z,23.89
2018-04-30T17:02:48.128Z,24.42
2018-04-30T17:05:15.607Z,23.85
2018-04-30T17:07:43.076Z,22.09
2018-04-30T17:10:10.584Z,20.98
2018-04-30T17:12:38.074Z,19.15
2018-04-30T17:15:05.609Z,18.36
2018-04-30T17:17:33.075Z,18.76
2018-04-30T17:20:00.569Z,18.36
2018-04-30T17:22:28.047Z,18.30
2018-04-30T17:24:55.538Z,17.91
2018-04-30T17:27:23.016Z,17.44
2018-04-30T17:29:50.532Z,16.86
2018-04-30T17:32:18.004Z,16.92
2018-04-30T17:34:45.503Z,17.28
2018-04-30T17:37:14.756Z,17.75
2018-04-30T17:39:42.262Z,18.25
2018-04-30T17:42:10.370Z,18.79
2018-04-30T17:44:37.913Z,19.88
2018-04-30T17:47:05.408Z,21.67
2018-04-30T17:49:32.993Z,21.86
2018-04-30T17:52:03.702Z,20.77
2018-04-30T17:54:33.420Z,19.12
2018-04-30T17:57:00.892Z,18.11
2018-04-30T17:59:28.745Z,17.39
2018-04-30T18:01:56.231Z,16.69
2018-04-30T18:04:23.999Z,16.15
2018-04-30T18:06:51.579Z,15.82
2018-04-30T18:09:19.004Z,15.53
2018-04-30T18:11:46.466Z,15.31
2018-04-30T18:14:15.103Z,15.19
2018-04-30T18:16:42.570Z,15.00
2018-04-30T18:19:12.488Z,14.88
2018-04-30T18:21:45.518Z,14.64
2018-04-30T18:24:13.027Z,14.43
2018-04-30T18:26:40.601Z,14.33
2018-04-30T18:29:08.081Z,14.22
2018-04-30T18:31:35.578Z,14.06
2018-04-30T18:34:03.063Z,13.96
2018-04-30T18:36:30.525Z,13.83
2018-04-30T18:38:58.055Z,13.78
2018-04-30T18:41:25.536Z,13.66
2018-04-30T18:43:53.843Z,13.57
2018-04-30T18:46:21.314Z,13.41
2018-04-30T18:48:48.881Z,13.34
2018-04-30T18:51:16.436Z,13.19
2018-04-30T18:53:43.931Z,13.05
2018-04-30T18:56:11.456Z,12.97
2018-04-30T18:58:38.949Z,12.84
2018-04-30T19:01:06.475Z,12.79
2018-04-30T19:03:33.960Z,12.83
2018-04-30T19:06:01.526Z,12.78
2018-04-30T19:08:28.993Z,12.81
2018-04-30T19:10:56.495Z,12.68
2018-04-30T19:13:23.949Z,12.63
2018-04-30T19:15:51.442Z,12.60
2018-04-30T19:18:18.905Z,12.77
2018-04-30T19:20:46.383Z,12.68
2018-04-30T19:23:13.888Z,12.64
2018-04-30T19:25:41.378Z,12.65
2018-04-30T19:28:08.835Z,12.59
2018-04-30T19:30:36.518Z,12.56
2018-04-30T19:33:03.991Z,12.66
2018-04-30T19:35:31.487Z,12.61
2018-04-30T19:37:59.232Z,12.60
2018-04-30T19:40:26.734Z,12.72
2018-04-30T19:42:54.221Z,12.65
2018-04-30T19:45:21.746Z,12.59
2018-04-30T19:47:49.219Z,12.63
2018-04-30T19:50:16.729Z,12.66
2018-04-30T19:52:44.206Z,12.62
2018-04-30T19:55:11.701Z,12.59
2018-04-30T19:57:39.170Z,12.69
2018-04-30T20:00:06.650Z,12.84
2018-04-30T20:02:34.116Z,12.70
2018-04-30T20:05:01.616Z,12.71
2018-04-30T20:07:29.094Z,12.90
2018-04-30T20:09:56.607Z,13.04
2018-04-30T20:12:24.109Z,13.18
2018-04-30T20:14:51.583Z,13.16
2018-04-30T20:17:19.082Z,13.18
2018-04-30T20:19:46.541Z,13.14
2018-04-30T20:22:14.199Z,13.07
2018-04-30T20:24:41.713Z,12.98
2018-04-30T20:27:09.222Z,12.85
2018-04-30T20:29:36.708Z,12.78
2018-04-30T20:32:04.194Z,12.66
2018-04-30T20:34:31.679Z,12.56
2018-04-30T20:36:59.166Z,12.51
2018-04-30T20:39:26.638Z,12.47
2018-04-30T20:41:54.131Z,12.40
2018-04-30T20:44:21.627Z,12.37
2018-04-30T20:46:49.228Z,12.37
2018-04-30T20:49:16.740Z,12.45
2018-04-30T20:51:44.224Z,12.44
2018-04-30T20:54:11.708Z,12.49
2018-04-30T20:56:39.207Z,12.47
2018-04-30T20:59:06.690Z,12.47
2018-04-30T21:01:35.145Z,12.44
2018-04-30T21:04:02.834Z,12.43
2018-04-30T21:06:30.348Z,12.45
2018-04-30T21:09:15.603Z,12.39
2018-04-30T21:11:44.082Z,12.44
2018-04-30T21:14:12.124Z,12.36
2018-04-30T21:16:39.602Z,12.27
2018-04-30T21:19:07.058Z,12.21
2018-04-30T21:21:35.094Z,12.19
2018-04-30T21:24:02.720Z,12.22
2018-04-30T21:26:30.216Z,12.21
2018-04-30T21:28:57.721Z,12.19
2018-04-30T21:31:25.210Z,12.20
2018-04-30T21:33:53.626Z,12.25
2018-04-30T21:36:21.181Z,12.21
2018-04-30T21:38:48.647Z,12.28
2018-04-30T21:41:16.127Z,12.24
2018-04-30T21:43:43.599Z,12.23
2018-04-30T21:46:11.085Z,12.18
2018-04-30T21:48:38.578Z,12.23
2018-04-30T21:51:06.057Z,12.19
2018-04-30T21:53:33.522Z,12.21
2018-04-30T21:56:00.989Z,12.24
2018-04-30T21:58:28.474Z,12.21
2018-04-30T22:00:55.974Z,12.24
2018-04-30T22:03:23.459Z,12.25
2018-04-30T22:05:50.920Z,12.25
2018-04-30T22:08:18.409Z,12.29
2018-04-30T22:10:45.869Z,12.20
2018-04-30T22:13:13.377Z,12.13
2018-04-30T22:15:40.837Z,12.14
2018-04-30T22:18:08.318Z,12.13
2018-04-30T22:20:35.770Z,12.10
2018-04-30T22:23:03.246Z,12.12
2018-04-30T22:25:30.710Z,12.10
2018-04-30T22:27:58.225Z,12.05
2018-04-30T22:30:25.671Z,12.05
2018-04-30T22:32:53.150Z,11.96
2018-04-30T22:35:20.605Z,11.95
2018-04-30T22:37:48.090Z,11.92
2018-04-30T22:40:15.550Z,11.96
2018-04-30T22:42:43.026Z,11.90
2018-04-30T22:45:10.482Z,11.83
2018-04-30T22:47:37.960Z,11.82
2018-04-30T22:50:05.426Z,11.84
2018-04-30T22:52:32.904Z,11.94
2018-04-30T22:55:00.357Z,11.88
2018-04-30T22:57:27.830Z,11.92
2018-04-30T22:59:55.294Z,11.87
2018-04-30T23:02:23.067Z,11.87
2018-04-30T23:04:50.542Z,11.83
2018-04-30T23:07:18.031Z,11.79
2018-04-30T23:09:45.496Z,11.74
2018-04-30T23:12:13.039Z,11.68
2018-04-30T23:14:40.506Z,11.66
2018-04-30T23:17:07.986Z,11.66
2018-04-30T23:19:35.442Z,11.63
2018-04-30T23:22:02.926Z,11.59
2018-04-30T23:24:30.382Z,11.60
2018-04-30T23:26:57.839Z,11.60
2018-04-30T23:29:25.325Z,11.57
2018-04-30T23:31:52.783Z,11.47
2018-04-30T23:34:20.262Z,11.41
2018-04-30T23:36:47.739Z,11.30
2018-04-30T23:39:15.218Z,11.23
2018-04-30T23:41:42.674Z,11.24
2018-04-30T23:44:10.154Z,11.18
2018-04-30T23:46:37.612Z,11.13
2018-04-30T23:49:05.105Z,11.07
2018-04-30T23:51:32.607Z,11.00
2018-04-30T23:54:00.086Z,10.99
2018-04-30T23:56:27.542Z,11.04
2018-04-30T23:58:55.020Z,11.13
